Decoded Metar for KCBM (COLOMBUS in MS, USA) (IATA:CBM) | Meteo·Mobile Aviation Weather
aviador You're here:

KCBM Decoded Metar

COLOMBUS in MS, USA
Report Time2018-09-24 06:56:00
UTC Time2018-09-24 07:18:17
Flight Rules vfr VFR
WindCalm
Visibility9999 m
Phenomena:N/A
Clouds:N/A
Expected CloudBase > 400 ft AGL from Temp-Dew spread
CeilingNone
Temp24°C (ISA +9)
Dew Point23°C (94% RH)
QNH1015 hPa
Density Alt1,617 ft
Elevation220 ft
Report Wrong Elevation
Raw Report
KCBM 240656Z AUTO 00000KT 7SM CLR 24/23 A2996 RMK AO2
RAB0558E06DZB44E55 SLP146 P0000 T02370230 $=

Extra information for KCBM:More info

Metar Taf Metar & Taf Last 4 Metars F.Rules Stats Wind Profile Meteogram Temp Stats Airport Information Weather charts Add Link Nearby VenuesMetar ALERT Operation Metar Decoded Social comments

AIRNAV info for KCBM